Terminal Aerodrome Forecast
Issued by NWS

Home | Current Version | Previous Version | Text Only | Print | Product List | Glossary On
Versions: 1 2 3 4 5 6 7 8 9 10 11 12 13 14 15 16
000
FTUS44 KEPZ 170545
TAFLRU
TAF
KLRU 170545Z 1706/1806 04007KT P6SM SCT060 BKN120
     FM171500 06007KT P6SM FEW020 SCT050 BKN100
     FM172000 06008KT P6SM VCSH BKN050 BKN110
     FM180500 13005KT P6SM SCT050 BKN110=

USA.gov is the U.S. government's official web portal to all federal, state and local government web resources and services.